createdAt,value
2022-10-11T00:00:49.971Z,9.40
2022-10-11T00:03:17.379Z,9.82
2022-10-11T00:05:44.425Z,9.60
2022-10-11T00:08:13.080Z,9.23
2022-10-11T00:10:40.482Z,9.75
2022-10-11T00:13:08.099Z,9.48
2022-10-11T00:15:35.142Z,10.32
2022-10-11T00:18:05.226Z,9.57
2022-10-11T00:20:32.454Z,10.10
2022-10-11T00:22:59.422Z,10.93
2022-10-11T00:25:26.293Z,10.98
2022-10-11T00:27:53.282Z,10.73
2022-10-11T00:30:20.282Z,10.88
2022-10-11T00:32:47.314Z,11.50
2022-10-11T00:35:14.773Z,11.20
2022-10-11T00:37:42.231Z,10.70
2022-10-11T00:40:14.012Z,11.57
2022-10-11T00:45:26.602Z,11.48
2022-10-11T00:47:56.311Z,11.52
2022-10-11T00:50:23.895Z,11.43
2022-10-11T00:52:55.481Z,12.38
2022-10-11T00:55:22.926Z,11.65
2022-10-11T00:57:52.929Z,12.65
2022-10-11T01:00:20.412Z,11.73
2022-10-11T01:02:47.413Z,12.68
2022-10-11T01:05:30.769Z,12.50
2022-10-11T01:08:01.083Z,12.52
2022-10-11T01:10:28.765Z,12.75
2022-10-11T01:13:21.715Z,12.40
2022-10-11T01:16:08.645Z,12.60
2022-10-11T01:18:59.541Z,12.00
2022-10-11T01:21:35.282Z,13.35
2022-10-11T01:24:28.875Z,13.20
2022-10-11T01:27:26.673Z,13.73
2022-10-11T01:30:04.583Z,13.18
2022-10-11T01:32:42.503Z,13.65
2022-10-11T01:35:31.051Z,15.23
2022-10-11T01:38:08.911Z,13.40
2022-10-11T01:40:57.865Z,14.77
2022-10-11T01:43:26.072Z,15.13
2022-10-11T01:45:54.899Z,14.07
2022-10-11T01:48:22.193Z,13.82
2022-10-11T01:50:51.863Z,14.90
2022-10-11T01:53:44.353Z,14.45
2022-10-11T01:56:36.035Z,13.43
2022-10-11T01:59:28.628Z,13.52
2022-10-11T02:02:24.174Z,13.75
2022-10-11T02:05:03.319Z,13.75
2022-10-11T02:07:39.461Z,12.25
2022-10-11T02:10:15.491Z,12.82
2022-10-11T02:13:09.861Z,13.90
2022-10-11T02:15:39.613Z,12.40
2022-10-11T02:18:11.223Z,13.13
2022-10-11T02:20:40.653Z,12.05
2022-10-11T02:23:11.448Z,12.27
2022-10-11T02:25:39.616Z,13.35
2022-10-11T02:28:11.485Z,13.68
2022-10-11T02:33:07.819Z,12.23
2022-10-11T02:35:39.491Z,11.75
2022-10-11T02:38:15.862Z,11.63
2022-10-11T02:40:45.317Z,12.48
2022-10-11T02:43:24.177Z,12.25
2022-10-11T02:45:57.921Z,12.95
2022-10-11T02:48:25.408Z,13.73
2022-10-11T02:50:54.215Z,12.77
2022-10-11T02:53:21.366Z,13.60
2022-10-11T02:55:49.581Z,12.85
2022-10-11T02:58:16.477Z,13.18
2022-10-11T03:00:43.985Z,13.20
2022-10-11T03:03:11.055Z,13.07
2022-10-11T03:05:41.609Z,13.48
2022-10-11T03:08:10.169Z,12.82
2022-10-11T03:10:38.176Z,12.68
2022-10-11T03:13:05.712Z,11.18
2022-10-11T03:15:32.824Z,11.45
2022-10-11T03:17:59.826Z,11.27
2022-10-11T03:20:26.823Z,10.63
2022-10-11T03:22:53.923Z,10.55
2022-10-11T03:25:20.833Z,9.57
2022-10-11T03:27:47.891Z,9.05
2022-10-11T03:30:18.392Z,8.45
2022-10-11T03:32:45.910Z,7.90
2022-10-11T03:35:12.837Z,7.90
2022-10-11T03:37:39.812Z,7.30
2022-10-11T03:40:08.458Z,7.20
2022-10-11T03:42:36.021Z,7.30
2022-10-11T03:45:08.046Z,6.50
2022-10-11T03:47:36.523Z,6.32
2022-10-11T03:50:05.530Z,5.43
2022-10-11T03:52:32.490Z,5.40
2022-10-11T03:54:59.559Z,5.03
2022-10-11T03:57:26.638Z,5.35
2022-10-11T03:59:53.672Z,4.63
2022-10-11T04:02:21.452Z,4.55
2022-10-11T04:04:50.091Z,4.22
2022-10-11T04:07:17.368Z,3.58
2022-10-11T04:09:44.378Z,3.58
2022-10-11T04:12:11.511Z,3.15
2022-10-11T04:14:38.392Z,2.80
2022-10-11T04:17:05.371Z,2.90
2022-10-11T04:19:32.378Z,2.55
2022-10-11T04:22:00.020Z,2.00
2022-10-11T04:24:27.084Z,2.00
2022-10-11T04:26:54.221Z,1.98
2022-10-11T04:29:21.542Z,1.73
2022-10-11T04:31:48.583Z,1.80
2022-10-11T04:34:15.791Z,1.40
2022-10-11T04:36:45.309Z,1.48
2022-10-11T04:39:16.055Z,1.42
2022-10-11T04:41:42.942Z,1.45
2022-10-11T04:44:09.908Z,1.63
2022-10-11T04:46:36.811Z,1.60
2022-10-11T04:49:03.746Z,1.50
2022-10-11T04:51:30.833Z,1.88
2022-10-11T04:53:57.766Z,1.33
2022-10-11T04:56:24.741Z,1.13
2022-10-11T04:58:54.280Z,1.23
2022-10-11T05:01:21.866Z,1.63
2022-10-11T05:03:49.610Z,1.50
2022-10-11T05:06:16.593Z,1.50
2022-10-11T05:08:43.671Z,1.70
2022-10-11T05:11:15.797Z,2.42
2022-10-11T05:13:44.552Z,1.48
2022-10-11T05:16:12.114Z,1.98
2022-10-11T05:18:39.859Z,2.60
2022-10-11T05:21:16.074Z,3.63
2022-10-11T05:23:43.465Z,2.25
2022-10-11T05:26:10.639Z,3.67
2022-10-11T05:28:37.873Z,2.30
2022-10-11T05:31:05.076Z,2.78
2022-10-11T05:33:32.416Z,2.72
2022-10-11T05:35:59.415Z,2.45
2022-10-11T05:38:26.656Z,2.70
2022-10-11T05:40:53.627Z,2.30
2022-10-11T05:43:20.683Z,2.30
2022-10-11T05:45:47.641Z,1.80
2022-10-11T05:48:14.659Z,2.30
2022-10-11T05:50:41.606Z,2.10
2022-10-11T05:53:08.667Z,2.53
2022-10-11T05:55:39.600Z,1.70
2022-10-11T05:58:07.578Z,1.63
2022-10-11T06:00:38.141Z,1.83
2022-10-11T06:03:09.059Z,2.33
2022-10-11T06:05:36.307Z,2.20
2022-10-11T06:08:06.100Z,2.95
2022-10-11T06:10:33.455Z,3.38
2022-10-11T06:13:00.405Z,4.43
2022-10-11T06:15:27.534Z,4.40
2022-10-11T06:17:54.565Z,2.80
2022-10-11T06:20:22.040Z,3.63
2022-10-11T06:22:48.988Z,3.35
2022-10-11T06:25:16.116Z,2.90
2022-10-11T06:27:43.069Z,2.80
2022-10-11T06:30:10.511Z,2.90
2022-10-11T06:32:37.475Z,2.25
2022-10-11T06:35:05.631Z,2.67
2022-10-11T06:37:32.593Z,2.97
2022-10-11T06:39:59.601Z,2.85
2022-10-11T06:42:26.601Z,2.47
2022-10-11T06:44:53.500Z,3.10
2022-10-11T06:47:20.492Z,2.60
2022-10-11T06:49:47.402Z,3.80
2022-10-11T06:52:14.516Z,2.70
2022-10-11T06:54:44.891Z,2.03
2022-10-11T06:57:12.722Z,2.78
2022-10-11T06:59:39.661Z,3.28
2022-10-11T07:02:07.081Z,3.88
2022-10-11T07:04:34.116Z,4.53
2022-10-11T07:07:01.362Z,4.45
2022-10-11T07:09:28.294Z,3.55
2022-10-11T07:11:55.392Z,3.53
2022-10-11T07:14:22.331Z,2.25
2022-10-11T07:16:49.253Z,1.98
2022-10-11T07:19:16.296Z,2.42
2022-10-11T07:21:43.269Z,2.85
2022-10-11T07:24:10.304Z,2.35
2022-10-11T07:29:19.184Z,3.00
2022-10-11T07:31:46.149Z,2.17
2022-10-11T07:34:13.158Z,2.35
2022-10-11T07:36:40.402Z,3.67
2022-10-11T07:39:08.065Z,2.65
2022-10-11T07:41:35.503Z,2.10
2022-10-11T07:44:03.364Z,2.17
2022-10-11T07:46:30.955Z,2.47
2022-10-11T07:48:58.029Z,1.83
2022-10-11T07:51:25.715Z,2.70
2022-10-11T07:53:57.052Z,2.00
2022-10-11T07:56:28.666Z,3.03
2022-10-11T07:58:58.023Z,2.42
2022-10-11T08:01:26.413Z,2.22
2022-10-11T08:03:54.103Z,2.80
2022-10-11T08:06:23.170Z,2.80
2022-10-11T08:08:50.401Z,2.40
2022-10-11T08:11:26.307Z,2.65
2022-10-11T08:13:53.444Z,2.50
2022-10-11T08:16:20.598Z,2.45
2022-10-11T08:18:47.860Z,2.40
2022-10-11T08:21:17.201Z,2.00
2022-10-11T08:23:44.400Z,2.22
2022-10-11T08:26:11.545Z,1.90
2022-10-11T08:28:38.956Z,2.13
2022-10-11T08:31:06.700Z,2.35
2022-10-11T08:33:34.114Z,2.22
2022-10-11T08:36:06.002Z,2.30
2022-10-11T08:38:34.009Z,2.20
2022-10-11T08:41:01.587Z,2.35
2022-10-11T08:43:49.769Z,2.28
2022-10-11T08:46:17.152Z,2.50
2022-10-11T08:48:50.062Z,2.30
2022-10-11T08:51:23.341Z,2.03
2022-10-11T08:54:07.611Z,2.20
2022-10-11T08:56:40.010Z,1.98
2022-10-11T08:59:13.144Z,2.13
2022-10-11T09:02:20.495Z,2.05
2022-10-11T09:04:52.668Z,1.75
2022-10-11T09:07:28.878Z,2.33
2022-10-11T09:10:31.512Z,2.17
2022-10-11T09:13:11.260Z,1.50
2022-10-11T09:15:56.672Z,1.95
2022-10-11T09:18:41.184Z,2.08
2022-10-11T09:21:46.353Z,2.60
2022-10-11T09:24:38.111Z,2.53
2022-10-11T09:27:25.890Z,1.92
2022-10-11T09:30:10.066Z,2.33
2022-10-11T09:32:40.133Z,2.65
2022-10-11T09:35:18.669Z,2.00
2022-10-11T09:38:15.839Z,2.08
2022-10-11T09:41:04.899Z,2.67
2022-10-11T09:43:31.953Z,2.42
2022-10-11T09:45:58.944Z,3.20
2022-10-11T09:48:33.645Z,2.85
2022-10-11T09:51:07.449Z,3.20
2022-10-11T09:53:57.229Z,2.30
2022-10-11T09:56:26.451Z,2.38
2022-10-11T09:59:30.733Z,2.33
2022-10-11T10:02:16.698Z,3.30
2022-10-11T10:05:05.264Z,3.20
2022-10-11T10:07:34.351Z,2.80
2022-10-11T10:10:40.108Z,2.60
2022-10-11T10:13:22.777Z,2.47
2022-10-11T10:15:53.636Z,2.33
2022-10-11T10:18:47.014Z,2.45
2022-10-11T10:21:15.744Z,2.00
2022-10-11T10:23:43.514Z,2.70
2022-10-11T10:26:20.022Z,2.45
2022-10-11T10:29:09.052Z,2.20
2022-10-11T10:34:40.460Z,2.27
2022-10-11T10:37:27.766Z,2.42
2022-10-11T10:40:07.957Z,2.25
2022-10-11T10:42:35.027Z,2.75
2022-10-11T10:45:02.163Z,2.45
2022-10-11T10:47:59.893Z,2.47
2022-10-11T10:50:51.124Z,2.20
2022-10-11T10:53:26.491Z,2.30
2022-10-11T10:56:11.090Z,2.22
2022-10-11T10:58:56.796Z,2.50
2022-10-11T11:01:25.556Z,2.08
2022-10-11T11:04:17.185Z,1.83
2022-10-11T11:06:51.591Z,1.52
2022-10-11T11:09:54.657Z,2.20
2022-10-11T11:12:40.344Z,1.52
2022-10-11T11:15:15.941Z,2.63
2022-10-11T11:18:20.434Z,2.78
2022-10-11T11:20:53.009Z,3.03
2022-10-11T11:23:32.092Z,2.33
2022-10-11T11:26:22.111Z,3.13
2022-10-11T11:29:11.120Z,2.40
2022-10-11T11:31:53.131Z,2.55
2022-10-11T11:34:29.137Z,1.75
2022-10-11T11:37:00.160Z,1.88
2022-10-11T11:39:34.978Z,1.90
2022-10-11T11:42:07.874Z,2.03
2022-10-11T11:44:47.399Z,2.40
2022-10-11T11:47:22.632Z,2.45
2022-10-11T11:49:56.100Z,2.60
2022-10-11T11:52:47.392Z,2.55
2022-10-11T11:55:23.755Z,2.28
2022-10-11T11:58:16.593Z,2.13
2022-10-11T12:00:56.833Z,2.63
2022-10-11T12:03:51.454Z,3.03
2022-10-11T12:06:22.455Z,2.30
2022-10-11T12:09:35.709Z,2.90
2022-10-11T12:12:07.602Z,3.40
2022-10-11T12:17:17.840Z,2.38
2022-10-11T12:20:12.429Z,2.28
2022-10-11T12:23:03.603Z,1.80
2022-10-11T12:25:35.399Z,1.92
2022-10-11T12:28:49.257Z,2.05
2022-10-11T12:31:22.631Z,1.67
2022-10-11T12:33:54.044Z,2.17
2022-10-11T12:36:43.631Z,1.90
2022-10-11T12:39:19.895Z,3.53
2022-10-11T12:41:55.498Z,2.50
2022-10-11T12:44:27.471Z,2.40
2022-10-11T12:50:12.119Z,2.75
2022-10-11T12:53:04.536Z,2.13
2022-10-11T12:56:09.748Z,1.55
2022-10-11T12:58:44.143Z,2.75
2022-10-11T13:01:13.295Z,1.55
2022-10-11T13:03:42.670Z,3.15
2022-10-11T13:06:18.073Z,2.97
2022-10-11T13:08:49.581Z,1.92
2022-10-11T13:11:23.060Z,2.38
2022-10-11T13:14:06.360Z,1.75
2022-10-11T13:16:58.787Z,1.80
2022-10-11T13:19:26.967Z,1.98
2022-10-11T13:21:57.230Z,2.10
2022-10-11T13:24:25.553Z,1.90
2022-10-11T13:26:55.794Z,2.13
2022-10-11T13:29:56.375Z,2.22
2022-10-11T13:32:30.273Z,2.30
2022-10-11T13:35:01.253Z,2.40
2022-10-11T13:37:29.873Z,1.43
2022-10-11T13:39:57.933Z,2.42
2022-10-11T13:42:30.082Z,2.15
2022-10-11T13:44:57.939Z,2.78
2022-10-11T13:47:32.142Z,2.50
2022-10-11T13:50:08.152Z,2.00
2022-10-11T13:52:35.253Z,2.15
2022-10-11T13:55:05.995Z,2.20
2022-10-11T13:57:37.791Z,2.15
2022-10-11T14:00:34.857Z,2.20
2022-10-11T14:03:16.278Z,2.78
2022-10-11T14:06:04.021Z,2.40
2022-10-11T14:08:40.025Z,2.00
2022-10-11T14:11:07.846Z,2.03
2022-10-11T14:13:42.591Z,2.00
2022-10-11T14:16:12.967Z,2.33
2022-10-11T14:18:51.373Z,2.50
2022-10-11T14:21:24.144Z,2.53
2022-10-11T14:24:03.819Z,2.25
2022-10-11T14:26:35.289Z,2.90
2022-10-11T14:29:06.584Z,2.80
2022-10-11T14:31:41.533Z,2.10
2022-10-11T14:34:16.009Z,2.00
2022-10-11T14:36:45.651Z,1.75
2022-10-11T14:39:17.136Z,1.83
2022-10-11T14:41:45.188Z,2.15
2022-10-11T14:44:12.787Z,1.95
2022-10-11T14:46:41.375Z,1.70
2022-10-11T14:49:23.170Z,1.65
2022-10-11T14:51:51.163Z,2.05
2022-10-11T14:54:22.420Z,2.85
2022-10-11T14:56:51.140Z,1.90
2022-10-11T14:59:21.571Z,3.13
2022-10-11T15:01:53.804Z,2.58
2022-10-11T15:04:26.585Z,2.60
2022-10-11T15:06:55.145Z,2.53
2022-10-11T15:09:30.762Z,2.28
2022-10-11T15:11:58.510Z,3.35
2022-10-11T15:14:26.001Z,4.53
2022-10-11T15:16:54.498Z,3.40
2022-10-11T15:19:24.222Z,3.55
2022-10-11T15:21:51.767Z,3.55
2022-10-11T15:24:22.301Z,4.05
2022-10-11T15:26:49.592Z,3.53
2022-10-11T15:29:22.083Z,4.18
2022-10-11T15:31:49.742Z,4.40
2022-10-11T15:34:17.355Z,3.67
2022-10-11T15:36:44.590Z,3.53
2022-10-11T15:39:27.149Z,3.30
2022-10-11T15:41:54.721Z,2.95
2022-10-11T15:44:21.678Z,3.20
2022-10-11T15:46:48.955Z,3.00
2022-10-11T15:49:17.064Z,2.92
2022-10-11T15:51:44.305Z,2.75
2022-10-11T15:54:11.227Z,3.67
2022-10-11T15:56:38.504Z,3.30
2022-10-11T15:59:05.722Z,3.85
2022-10-11T16:01:33.415Z,4.60
2022-10-11T16:04:01.166Z,3.85
2022-10-11T16:06:28.702Z,4.35
2022-10-11T16:08:55.752Z,4.97
2022-10-11T16:11:22.859Z,9.07
2022-10-11T16:13:49.816Z,14.90
2022-10-11T16:16:16.971Z,6.55
2022-10-11T16:18:43.887Z,4.82
2022-10-11T16:21:13.046Z,4.20
2022-10-11T16:23:40.175Z,5.60
2022-10-11T16:26:11.216Z,9.32
2022-10-11T16:28:38.666Z,9.87
2022-10-11T16:31:24.457Z,9.70
2022-10-11T16:33:53.071Z,7.82
2022-10-11T16:36:41.123Z,7.30
2022-10-11T16:39:16.617Z,7.60
2022-10-11T16:41:44.719Z,8.50
2022-10-11T16:44:20.106Z,7.75
2022-10-11T16:46:48.562Z,6.80
2022-10-11T16:49:22.144Z,6.35
2022-10-11T16:51:50.211Z,6.78
2022-10-11T16:54:20.560Z,7.15
2022-10-11T16:56:49.434Z,9.10
2022-10-11T16:59:16.776Z,10.05
2022-10-11T17:01:45.229Z,10.93
2022-10-11T17:04:13.028Z,10.07
2022-10-11T17:06:40.413Z,8.38
2022-10-11T17:09:07.410Z,9.50
2022-10-11T17:11:34.493Z,9.30
2022-10-11T17:14:02.095Z,8.15
2022-10-11T17:16:29.191Z,8.63
2022-10-11T17:18:56.246Z,9.10
2022-10-11T17:21:24.339Z,9.65
2022-10-11T17:23:51.517Z,11.65
2022-10-11T17:26:26.316Z,8.77
2022-10-11T17:28:54.978Z,8.05
2022-10-11T17:31:22.690Z,7.75
2022-10-11T17:33:50.175Z,7.28
2022-10-11T17:36:23.981Z,7.75
2022-10-11T17:38:53.103Z,5.88
2022-10-11T17:41:21.181Z,5.75
2022-10-11T17:43:48.289Z,7.35
2022-10-11T17:46:16.425Z,6.60
2022-10-11T17:48:44.772Z,5.95
2022-10-11T17:51:14.787Z,4.70
2022-10-11T17:53:42.148Z,4.72
2022-10-11T17:56:11.763Z,4.82
2022-10-11T17:58:39.335Z,6.30
2022-10-11T18:01:10.829Z,6.85
2022-10-11T18:03:38.647Z,6.03
2022-10-11T18:06:08.076Z,5.22
2022-10-11T18:08:40.188Z,5.25
2022-10-11T18:11:16.284Z,5.47
2022-10-11T18:13:46.527Z,6.20
2022-10-11T18:16:16.402Z,6.25
2022-10-11T18:18:44.322Z,6.28
2022-10-11T18:21:19.120Z,7.53
2022-10-11T18:23:48.118Z,5.90
2022-10-11T18:26:20.870Z,5.35
2022-10-11T18:28:48.633Z,5.05
2022-10-11T18:31:20.327Z,4.70
2022-10-11T18:33:48.711Z,4.60
2022-10-11T18:36:17.865Z,4.45
2022-10-11T18:38:49.474Z,4.88
2022-10-11T18:41:19.601Z,5.13
2022-10-11T18:43:55.082Z,5.30
2022-10-11T18:46:23.486Z,4.88
2022-10-11T18:48:52.254Z,5.05
2022-10-11T18:51:20.199Z,5.50
2022-10-11T18:53:48.103Z,5.40
2022-10-11T18:56:17.174Z,4.78
2022-10-11T18:58:44.861Z,5.53
2022-10-11T19:01:17.855Z,5.45
2022-10-11T19:03:46.161Z,5.80
2022-10-11T19:06:18.964Z,5.35
2022-10-11T19:08:59.428Z,5.10
2022-10-11T19:11:27.301Z,5.55
2022-10-11T19:14:14.929Z,5.10
2022-10-11T19:16:49.677Z,4.68
2022-10-11T19:19:20.810Z,4.75
2022-10-11T19:21:49.021Z,5.38
2022-10-11T19:24:17.650Z,5.43
2022-10-11T19:26:45.781Z,5.18
2022-10-11T19:29:15.473Z,5.15
2022-10-11T19:31:45.653Z,5.13
2022-10-11T19:34:13.502Z,4.90
2022-10-11T19:36:42.924Z,4.93
2022-10-11T19:39:17.991Z,4.65
2022-10-11T19:41:45.389Z,5.25
2022-10-11T19:44:13.743Z,6.90
2022-10-11T19:47:00.223Z,5.78
2022-10-11T19:49:29.625Z,5.72
2022-10-11T19:51:56.830Z,6.35
2022-10-11T19:54:24.191Z,5.78
2022-10-11T19:56:51.506Z,5.38
2022-10-11T19:59:18.976Z,6.18
2022-10-11T20:01:51.913Z,5.80
2022-10-11T20:04:50.492Z,6.18
2022-10-11T20:07:07.394Z,5.28
2022-10-11T20:09:34.515Z,5.43
2022-10-11T20:12:02.418Z,4.65
2022-10-11T20:14:29.846Z,4.20
2022-10-11T20:16:57.792Z,4.30
2022-10-11T20:19:31.404Z,3.90
2022-10-11T20:22:00.144Z,3.97
2022-10-11T20:24:29.959Z,4.22
2022-10-11T20:26:57.285Z,4.60
2022-10-11T20:29:27.867Z,3.55
2022-10-11T20:31:56.613Z,3.70
2022-10-11T20:34:23.808Z,4.65
2022-10-11T20:36:51.090Z,4.03
2022-10-11T20:39:18.344Z,3.95
2022-10-11T20:41:45.641Z,4.50
2022-10-11T20:44:16.094Z,4.55
2022-10-11T20:46:43.441Z,3.70
2022-10-11T20:49:11.914Z,3.60
2022-10-11T20:51:41.561Z,4.03
2022-10-11T20:54:09.578Z,3.97
2022-10-11T20:56:37.561Z,3.20
2022-10-11T20:59:05.483Z,4.15
2022-10-11T21:01:37.178Z,3.35
2022-10-11T21:06:32.565Z,3.97
2022-10-11T21:09:00.306Z,3.78
2022-10-11T21:11:32.125Z,4.57
2022-10-11T21:14:01.485Z,3.78
2022-10-11T21:16:28.784Z,4.05
2022-10-11T21:18:57.521Z,4.80
2022-10-11T21:21:25.811Z,3.78
2022-10-11T21:23:57.096Z,3.40
2022-10-11T21:26:24.603Z,4.22
2022-10-11T21:28:51.898Z,3.45
2022-10-11T21:31:20.594Z,4.55
2022-10-11T21:33:48.045Z,4.55
2022-10-11T21:36:17.554Z,4.13
2022-10-11T21:38:45.027Z,4.70
2022-10-11T21:41:14.346Z,5.07
2022-10-11T21:43:41.746Z,5.15
2022-10-11T21:46:20.148Z,4.22
2022-10-11T21:48:47.787Z,4.40
2022-10-11T21:51:16.897Z,3.72
2022-10-11T21:53:43.904Z,3.72
2022-10-11T21:56:10.837Z,4.32
2022-10-11T21:58:37.965Z,3.97
2022-10-11T22:01:05.501Z,4.15
2022-10-11T22:03:32.623Z,3.60
2022-10-11T22:06:03.040Z,3.25
2022-10-11T22:08:30.453Z,3.13
2022-10-11T22:10:59.327Z,3.10
2022-10-11T22:13:27.833Z,3.13
2022-10-11T22:15:58.155Z,2.83
2022-10-11T22:18:25.613Z,2.88
2022-10-11T22:20:52.746Z,2.85
2022-10-11T22:23:19.903Z,3.30
2022-10-11T22:25:46.847Z,2.63
2022-10-11T22:28:14.685Z,3.22
2022-10-11T22:30:42.141Z,3.10
2022-10-11T22:33:09.288Z,3.30
2022-10-11T22:35:37.881Z,4.03
2022-10-11T22:38:06.397Z,3.45
2022-10-11T22:40:33.730Z,3.60
2022-10-11T22:43:00.883Z,3.67
2022-10-11T22:45:27.890Z,3.65
2022-10-11T22:47:54.944Z,3.28
2022-10-11T22:50:21.986Z,3.67
2022-10-11T22:52:48.926Z,3.55
2022-10-11T22:55:19.952Z,4.07
2022-10-11T22:57:47.410Z,4.20
2022-10-11T23:00:14.788Z,4.65
2022-10-11T23:02:41.945Z,3.97
2022-10-11T23:05:09.023Z,3.33
2022-10-11T23:07:36.664Z,3.50
2022-10-11T23:10:04.367Z,3.55
2022-10-11T23:12:31.424Z,3.60
2022-10-11T23:14:58.967Z,3.33
2022-10-11T23:17:25.907Z,3.38
2022-10-11T23:19:53.079Z,3.00
2022-10-11T23:22:20.111Z,2.90
2022-10-11T23:24:47.354Z,3.03
2022-10-11T23:27:14.563Z,3.40
2022-10-11T23:29:41.789Z,2.90
2022-10-11T23:32:09.104Z,2.83
2022-10-11T23:34:36.224Z,2.42
2022-10-11T23:37:03.788Z,2.45
2022-10-11T23:39:30.890Z,2.50
2022-10-11T23:41:57.873Z,2.78
2022-10-11T23:44:25.046Z,3.15
2022-10-11T23:46:52.214Z,2.83
2022-10-11T23:49:19.225Z,2.45
2022-10-11T23:51:46.224Z,2.80
2022-10-11T23:54:13.204Z,3.13
2022-10-11T23:56:40.233Z,2.92
2022-10-11T23:59:07.205Z,2.47
